Tiempo atmosférico en la estación meteorológica de Portocolom, Illes Balears (17 m.)



Fecha
DESCASC
Temp. máxima en grados centígrados (hora)
DESCASC
Temp. mínima en grados centígrados (hora)
DESCASC
Temp. media en grados centígrados
DESCASC
Racha de viento máxima en m/sg (hora)
DESCASC
Velocidad máxima media en intervalos de 10 minutos(hora)
DESCASC
Precipitaciones diarias en mm
DESCASC
Precipitaciones de 00:00 a 06:00 en mm
DESCASC
Precipitaciones de 06:00 a 12:00 en mm
DESCASC
Precipitaciones de 12:00 a 18:00 en mm
DESCASC
Precipitaciones de 18:00 a 24:00 en mm
DESCASC
16-04-2019 19.2 (16:20) 11.8 (04:40) 15.5 8.61 (08:30) 5 (08:20) 1.8 1 0.8 0 0
15-04-2019 18.3 (13:10) 11.2 (05:50) 14.7 6.11 (16:00) 3.89 (12:10) 0 0 0 0 0
14-04-2019 23.8 (14:30) 12.4 (00:00) 18.1 11.11 (10:30) 6.67 (10:10) 0 0 0 0 0
13-04-2019 19.7 (16:40) 8.7 (00:00) 14.2 13.33 (15:00) 10.28 (15:00) 0 0 0 0 0
12-04-2019 18.1 (11:00) 10.2 (00:00) 14.2 8.89 (00:30) 5.28 (12:00) 0 0 0 0 0
11-04-2019 -- (--) -- (--) -- -- (--) -- (--) -- -- -- -- 0
10-04-2019 -- (--) -- (--) -- -- (--) -- (--) -- 0 3 -- --
09-04-2019 21.7 (14:10) 13.3 (00:00) 17.5 12.78 (16:40) 8.89 (17:00) 0 0 0 0 0
08-04-2019 20.1 (17:30) 8.6 (00:00) 14.4 12.22 (16:30) 7.78 (17:00) 0 0 0 0 0
07-04-2019 18.1 (16:00) 10.4 (00:00) 14.3 11.94 (15:20) 7.5 (16:10) 0.2 0 0.2 0 0
06-04-2019 16.7 (14:00) 9.9 (00:00) 13.3 15 (15:30) 10.28 (03:10) 2.8 2.6 0.2 0 0
05-04-2019 17.8 (14:30) 7.8 (00:00) 12.8 14.17 (18:30) 11.11 (17:50) 1.2 0 0 0 1.2
04-04-2019 17.5 (14:00) 10.3 (00:00) 13.9 11.11 (01:30) 6.39 (01:20) 1.4 1.4 0 0 0
03-04-2019 18.7 (14:00) 13 (00:00) 15.9 11.67 (14:40) 9.17 (16:50) 0 0 0 0 0
02-04-2019 18.4 (13:00) 10.1 (00:00) 14.3 11.11 (14:20) 9.17 (13:40) 0 0 0 0 0
01-04-2019 18.7 (14:00) 13.9 (00:00) 16.3 9.17 (00:20) 5.83 (00:20) 0 0 0 0 0
31-03-2019 17.1 (12:40) 13.9 (00:00) 15.5 9.72 (21:20) 5.83 (23:59) 0 0 0 0 0
30-03-2019 17.2 (14:30) 9.5 (00:00) 13.4 7.78 (17:10) 5.28 (17:00) 0 0 0 0 0
29-03-2019 17.6 (14:50) 6.8 (00:00) 12.2 7.22 (10:40) 5 (10:20) 0 0 0 0 0
28-03-2019 17.6 (13:50) 9 (00:00) 13.3 10 (11:50) 6.67 (11:50) 0 0 0 0 0
27-03-2019 17.3 (11:40) 8.2 (00:00) 12.7 11.11 (13:10) 6.67 (15:40) 0 0 0 0 0
26-03-2019 15.7 (13:00) 7.9 (00:00) 11.8 15.83 (11:40) 9.44 (11:50) 0 0 0 0 0
25-03-2019 20.9 (12:00) 8.2 (00:00) 14.5 7.5 (13:00) 5.28 (12:40) 0 0 0 0 0
24-03-2019 19.6 (16:50) 8.8 (00:00) 14.2 10.83 (15:20) 8.61 (15:40) 0 0 0 0 0
23-03-2019 19 (13:40) 11.2 (00:00) 15.1 6.39 (12:40) 3.89 (13:00) 0 0 0 0 0
22-03-2019 19.4 (13:30) 11.5 (00:00) 15.4 9.44 (11:50) 6.11 (12:50) 0 0 0 0 0
21-03-2019 16.1 (13:10) 11.1 (00:00) 13.6 14.44 (08:50) 9.72 (08:50) 0 0 0 0 0
20-03-2019 16 (12:10) 9.1 (00:00) 12.6 17.5 (15:30) 10.28 (21:20) 1.2 0 0 1 0.2
19-03-2019 13.1 (16:00) 8.8 (00:00) 11 14.72 (23:30) 8.61 (23:30) 0.4 0 0 0 0.4

Gráficas

Temp. máximas Temp. mínimas Temp. medias Precipitaciones Rachas de viento máximas Velocidades máximas media en intervalos de 10 minutos

Datos horarios

Fecha y hora oficial Temperatura (ºC) Velocidad del viento (km/h) Dirección del viento Racha (km/h) Dirección de racha Precipitación (mm) Presión (hPa) Tendencia (hPa) Humedad (%)
2019-04-17 23:00:00 15.1 15 Este 29 Este 0 1014.9 0.4 85
2019-04-17 22:00:00 15.1 14 Este 27 Este 0 1015.2 0.8 82
2019-04-17 21:00:00 15.1 15 Este 26 Este 0 1014.7 0.2 82
2019-04-17 20:00:00 15.3 16 Este 27 Este 0 1014.5 -0.4 80
2019-04-17 19:00:00 16 16 Este 26 Este 0 1014.4 -1.3 77
2019-04-17 18:00:00 16.1 14 Este 27 Sudeste 0 1014.5 -1.8 74
2019-04-17 17:00:00 16.8 16 Sudeste 25 Sudeste 0 1014.9 -1.9 73
2019-04-17 16:00:00 17.7 12 Sudeste 22 Sudeste 0 1015.7 -1.6 69
2019-04-17 15:00:00 17.9 10 Este 21 Sudeste 0 1016.3 -1 66
2019-04-17 14:00:00 18.7 11 Sudeste 20 Sudeste 0 1016.8 -0.6 64
2019-04-17 13:00:00 18 11 Sudeste 20 Este 0 1017.3 0.1 66
2019-04-17 12:00:00 17.8 10 Este 20 Este 0 1017.3 0.4 68
2019-04-17 11:00:00 17.2 12 Este 19 Sudeste 0 1017.4 0.8 69
2019-04-17 10:00:00 16.1 11 Este 19 Sudeste 0 1017.2 0.9 73
2019-04-17 09:00:00 15 10 Este 18 Este 0 1016.9 0.6 79
2019-04-17 08:00:00 12 8 Norte 13 Norte 0 1016.6 0.2 90
2019-04-17 07:00:00 11.7 10 Norte 14 Norte 0 1016.3 -0.7 90
2019-04-17 06:00:00 11.6 9 Norte 13 Norte 0 1016.3 -1.2 89
2019-04-17 05:00:00 13 4 Nordeste 12 Sudeste 0 1016.4 -1.6 85
2019-04-17 04:00:00 14.4 6 Sudeste 15 Sudeste 0 1017 -1 82
2019-04-17 03:00:00 14.6 8 Este 16 Sudeste 0 1017.5 -0.3 81
2019-04-17 02:00:00 14.7 10 Este 18 Este 0 1018 0.1 81
2019-04-17 01:00:00 14.9 10 Este 17 Este 0 1018 0.1 81
2019-04-17 00:00:00 15 12 Este 21 Este 0 1017.8 0.2 79
2019-04-16 23:00:00 15.2 13 Este 19 Este 0 1017.9 0.7 69
2019-04-16 22:00:00 15.1 7 Este 17 Este 0 1017.9 0.8 78
2019-04-16 21:00:00 15.3 9 Este 15 Este 0 1017.6 0.6 79
2019-04-16 20:00:00 16 10 Este 17 Este 0 1017.2 0.3 66
2019-04-16 19:00:00 16.8 10 Este 20 Este 0 1017.1 0.1 63
2019-04-16 18:00:00 18.3 5 Sudeste 10 Sudeste 0 1017 -0.1 66
2019-04-16 17:00:00 19 6 Sudeste 11 Sudeste 0 1016.9 0 66
2019-04-16 16:00:00 18.7 6 Sudeste 14 Sudeste 0 1017 0 66
2019-04-16 15:00:00 18.9 7 Sudeste 16 Sudeste 0 1017.1 -0.1 66
2019-04-16 14:00:00 18.3 13 Sur 17 Sur 0 1016.9 0.3 63
2019-04-16 13:00:00 18.2 7 Sudeste 14 Sudeste 0 1017 1.2 65
2019-04-16 12:00:00 17.9 6 Sudeste 11 Este 0 1017.2 1.8 67
2019-04-16 11:00:00 17.4 5 Sudeste 12 Este 0 1016.6 2.7 60
2019-04-16 10:00:00 15.4 8 Este 13 Este 0 1015.8 1.5 75
2019-04-16 09:00:00 14 10 Nordeste 31 Este 0.2 1015.4 1.7 92
2019-04-16 08:00:00 13.5 12 Nordeste 24 Este 0.4 1013.9 0.2 92
2019-04-16 07:00:00 12.7 8 Norte 21 Nordeste 0.2 1014.3 0.6 93
2019-04-16 06:00:00 12.6 8 Norte 15 Norte 1 1013.7 0.1 91
2019-04-16 05:00:00 12 12 Norte 17 Norte 0 1013.7 0 89
2019-04-16 04:00:00 12.3 8 Norte 13 Norte 0 1013.7 -0.6 87
2019-04-16 03:00:00 14.5 5 Sudeste 19 Sudeste 0 1013.6 -0.5 82
2019-04-16 02:00:00 14.6 8 Sudeste 19 Sudeste 0 1013.7 -0.7 81
2019-04-16 01:00:00 14.6 9 Sudeste 22 Sudeste 0 1014.3 0.3 79
2019-04-16 00:00:00 14.6 11 Sudeste 20 Sudeste 0 1014.1 0.2 76
2019-04-15 23:00:00 14.7 11 Sudeste 20 Sudeste 0 1014.4 0.6 75
2019-04-15 22:00:00 14.7 12 Este 21 Sudeste 0 1014 -0.2 71
2019-04-15 21:00:00 14.9 13 Sudeste 22 Sudeste 0 1013.9 -0.3 70
2019-04-15 20:00:00 15.3 11 Este 18 Este 0 1013.8 -0.3 63
2019-04-15 19:00:00 15.8 9 Este 18 Sudeste 0 1014.2 -0.3 58
2019-04-15 18:00:00 16.8 10 Este 18 Este 0 1014.2 -0.9 53
2019-04-15 17:00:00 17.2 12 Este 19 Este 0 1014.1 -1.4 55
2019-04-15 16:00:00 16.9 12 Este 22 Este 0 1014.5 -1.5 59
2019-04-15 15:00:00 17.3 11 Sudeste 18 Este 0 1015.1 -1 57
2019-04-15 14:00:00 18.1 10 Este 17 Sudeste 0 1015.5 -0.4 51
2019-04-15 13:00:00 17.9 10 Este 21 Este 0 1016 0.3 54
2019-04-15 12:00:00 17.2 13 Este 21 Este 0 1016.1 0.7 61
2019-04-15 11:00:00 17.6 9 Este 19 Este 0 1015.9 1.2 59
2019-04-15 10:00:00 17.2 10 Este 17 Este 0 1015.7 1.2 56
2019-04-15 09:00:00 16.3 7 Este 16 Este 0 1015.4 0.9 60
2019-04-15 08:00:00 14.9 10 Este 16 Este 0 1014.7 -0.1 66
2019-04-15 07:00:00 13.6 12 Este 17 Este 0 1014.5 -0.2 68
2019-04-15 06:00:00 11.4 6 Nordeste 11 Nordeste 0 1014.5 -0.4 88
2019-04-15 05:00:00 11.5 6 Norte 10 Este 0 1014.8 -0.3 90
2019-04-15 04:00:00 13.8 5 Este 12 Sudeste 0 1014.7 -0.3 79
2019-04-15 03:00:00 13.6 6 Este 12 Este 0 1014.9 0.1 84
2019-04-15 02:00:00 14.5 9 Este 14 Este 0 1015.1 0.7 84
2019-04-15 01:00:00 13.9 9 Nordeste 15 Nordeste 0 1015 0.9 91
2019-04-15 00:00:00 13.1 6 Nordeste 8 Norte 0 1014.8 1.5 89
2019-04-14 23:00:00 13.6 6 Nordeste 8 Norte 0 1014.4 1.9 87
2019-04-14 22:00:00 14.5 5 Norte 7 Nordeste 0 1014.1 1.6 88
2019-04-14 21:00:00 15.1 4 Nordeste 6 Nordeste 0 1013.3 1 85
2019-04-14 20:00:00 16.5 3 Este 8 Sudeste 0 1012.5 0.5 81
2019-04-14 19:00:00 17.5 5 Sudeste 13 Este 0 1012.5 0.5 78
2019-04-14 18:00:00 17.6 10 Este 17 Este 0 1012.3 0.6 76
2019-04-14 17:00:00 17.8 7 Este 19 Este 0 1012 0.7 72
2019-04-14 16:00:00 17.4 13 Este 29 Este 0 1012 0.4 70
2019-04-14 15:00:00 18.8 21 Nordeste -- -- 0 1011.7 -0.4 71
2019-04-14 14:00:00 22.8 19 Sudoeste 32 Sudoeste 0 1011.3 -0.9 43
2019-04-14 13:00:00 22 18 Oeste 33 Oeste 0 1011.6 -0.5 51
2019-04-14 12:00:00 19.8 18 Oeste 38 Oeste 0 1012.1 -0.3 62
2019-04-14 11:00:00 18.1 19 Oeste 40 Oeste 0 1012.2 -0.2 73
2019-04-14 10:00:00 16.4 17 Oeste 35 Oeste 0 1012.1 -0.5 83
2019-04-14 09:00:00 14.9 14 Sudoeste 22 Sudoeste 0 1012.4 -0.3 91
2019-04-14 08:00:00 13.4 13 Sudoeste 24 Sudoeste 0 1012.4 -0.6 93
2019-04-14 07:00:00 12.4 11 Oeste 16 Oeste 0 1012.6 -0.8 90
2019-04-14 06:00:00 13 9 Sudoeste 23 Oeste 0 1012.7 -1.2 92
2019-04-14 05:00:00 13.4 18 Oeste 25 Oeste 0 1013 -1.8 91
2019-04-14 04:00:00 13.2 10 Oeste 26 Oeste 0 1013.4 -1.8 90
2019-04-14 03:00:00 13.7 16 Oeste 27 Oeste 0 1013.9 -1.4 90
2019-04-14 02:00:00 13.1 9 Oeste 17 Sudoeste 0 1014.8 -0.2 92
2019-04-14 01:00:00 13.3 6 Sudoeste 23 Oeste 0 1015.2 -0.2 90
2019-04-14 00:00:00 13.7 10 Oeste 17 Oeste 0 1015.3 0.4 89
2019-04-13 23:00:00 13.9 9 Oeste 21 Oeste 0 1015 0.4 87
2019-04-13 22:00:00 14.1 6 Noroeste 14 Noroeste 0 1015.4 1.3 82
2019-04-13 21:00:00 15.1 9 Oeste 13 Oeste 0 1014.9 1.1 77
2019-04-13 20:00:00 16.7 5 Nordeste 27 Oeste 0 1014.6 0.7 70
2019-04-13 19:00:00 18.6 17 Oeste 32 Oeste 0 1014.1 -0.1 54
2019-04-13 18:00:00 19 22 Oeste 35 Oeste 0 1013.8 -0.5 49
2019-04-13 17:00:00 19.7 18 Oeste 39 Sudoeste 0 1013.9 -0.9 51
2019-04-13 16:00:00 18.1 20 Sudoeste 47 Sudoeste 0 1014.2 -1.1 57
2019-04-13 15:00:00 17.7 37 Sudoeste 48 Sudoeste 0 1014.3 -1.4 69
2019-04-13 14:00:00 17.5 33 Sudoeste 43 Sudoeste 0 1014.8 -1 64
2019-04-13 13:00:00 17.4 31 Sudoeste 39 Sudoeste 0 1015.3 -0.3 72
2019-04-13 12:00:00 17.6 23 Sudoeste 28 Sudoeste 0 1015.7 0.5 72
2019-04-13 11:00:00 18.7 10 Sudoeste 14 Sudoeste 0 1015.8 0.9 49
2019-04-13 10:00:00 16.1 5 Sudoeste 9 Sudoeste 0 1015.6 1.2 67
2019-04-13 09:00:00 12.2 4 Norte 7 Norte 0 1015.2 1 71
2019-04-13 08:00:00 9.6 5 Noroeste 8 Noroeste 0 1014.9 0.4 84
2019-04-13 07:00:00 9.2 4 Noroeste 9 Oeste 0 1014.4 -0.3 90
2019-04-13 06:00:00 10.6 4 Oeste 11 Oeste 0 1014.2 -0.7 87
2019-04-13 05:00:00 11.3 8 Oeste 14 Oeste 0 1014.5 -0.8 85
2019-04-13 04:00:00 11 6 Noroeste 9 Noroeste 0 1014.7 -0.8 83
2019-04-13 03:00:00 10.4 6 Noroeste 9 Noroeste 0 1014.9 -0.3 86
2019-04-13 02:00:00 9.6 5 Noroeste 7 Norte 0 1015.3 0.3 88
2019-04-13 01:00:00 10.3 4 Norte 9 Norte 0 1015.5 0.8 86
2019-04-13 00:00:00 10.5 8 Norte 10 Norte 0 1015.2 1.1 84
2019-04-12 23:00:00 10.6 8 Norte 9 Norte 0 1015 1.1 83
2019-04-12 22:00:00 12.1 5 Norte 10 Sudoeste 0 1014.7 0.9 79
2019-04-12 21:00:00 13.8 5 Sur 9 Sur 0 1014.1 0.4 71
2019-04-12 20:00:00 14.6 6 Sur 10 Sudeste 0 1013.9 0.3 68
2019-04-12 19:00:00 15.8 5 Sudeste 11 Sudeste 0 1013.8 0.1 65
2019-04-12 18:00:00 16.9 5 Sudeste 11 Sudeste 0 1013.7 -0.2 62
2019-04-12 17:00:00 15.6 8 Este 15 Este 0 1013.6 0 66
2019-04-12 16:00:00 16.3 5 Este 10 Este 0 1013.7 0.2 61
2019-04-12 15:00:00 16.2 6 Este 18 Este 0 1013.9 0.3 59
2019-04-12 14:00:00 16.5 12 Este 23 Este 0 1013.6 0.3 58
2019-04-12 13:00:00 17.6 13 Este 28 Este 0 1013.5 0.7 53
2019-04-12 12:00:00 16.9 19 Este 30 Nordeste 0 1013.6 0.8 52
2019-04-12 11:00:00 17.5 15 Nordeste 29 Nordeste 0 1013.3 0.9 53
2019-04-12 10:00:00 17.1 12 Nordeste 21 Nordeste 0 1012.8 0.8 54
2019-04-12 09:00:00 14.5 5 Nordeste 10 Nordeste 0 1012.8 1.2 64
2019-04-12 08:00:00 13.1 7 Norte 11 Norte 0 1012.4 0.8 73
2019-04-12 07:00:00 12.6 6 Norte 9 Noroeste 0 1012 0.3 76
2019-04-12 06:00:00 13 3 Oeste 6 Noroeste 0 1011.6 -0.1 76
2019-04-12 05:00:00 13.2 6 Norte 18 Norte 0 1011.6 -0.5 73
2019-04-12 04:00:00 13.6 11 Norte 24 Oeste 0 1011.7 -0.5 74
2019-04-12 03:00:00 13.6 14 Noroeste 28 Noroeste 0 1011.7 -0.8 78
2019-04-12 02:00:00 13.1 11 Noroeste 21 Oeste 0 1012.1 -0.5 76
2019-04-12 01:00:00 12.5 14 Noroeste 32 Noroeste 0 1012.2 -0.3 66
2019-04-12 00:00:00 12.7 9 Sudoeste 14 Sudoeste 0 1012.5 0.7 80
2019-04-11 23:00:00 12.8 9 Oeste 13 Oeste 0 1012.6 1.6 77
2019-04-11 22:00:00 13.1 5 Oeste 9 Oeste 0 1012.5 1.9 79
2019-04-11 21:00:00 13.7 3 Norte 17 Nordeste 0 1011.8 1.7 78
2019-04-11 20:00:00 14.7 9 Nordeste 23 Nordeste 0 1011 1.6 73
2019-04-11 19:00:00 15.7 15 Nordeste 30 Nordeste 0 1010.6 0.9 71
2019-04-11 18:00:00 17 16 Nordeste 49 Norte 0 1010.1 -0.3 68
2019-04-11 17:00:00 18.9 12 Noroeste 48 Sudoeste 0 1009.4 -1.5 43
2019-04-11 16:00:00 18.6 27 Sudoeste 43 Sudoeste 0 1009.7 -1.4 48
2019-04-11 15:00:00 17.7 33 Sudoeste 40 Sudoeste 0 1010.4 -1 70
2019-04-11 14:00:00 15.8 20 Sudoeste -- -- -- 1010.9 -0.3 73
2019-04-11 13:00:00 16.9 -- -- -- -- -- 1011.1 0.3 66
2019-04-11 12:00:00 17.5 14 Sudoeste 17 Sudoeste 0 1011.4 -- 63
2019-04-11 11:00:00 16.6 5 Sur 11 Sudoeste 0 1011.2 -- 63
2019-04-11 10:00:00 15.4 2 Sudoeste -- -- -- 1010.8 -- 68
2019-04-11 09:00:00 -- -- -- -- -- -- -- -- --
2019-04-11 08:00:00 -- -- -- -- -- -- -- -- --
2019-04-11 07:00:00 -- -- -- -- -- -- -- -- --
2019-04-11 06:00:00 -- -- -- -- -- -- -- -- --
2019-04-11 05:00:00 -- -- -- -- -- -- -- -- --
2019-04-11 04:00:00 -- -- -- -- -- -- -- -- --
2019-04-11 03:00:00 -- -- -- -- -- -- -- -- --
2019-04-11 02:00:00 -- -- -- -- -- -- -- -- --
2019-04-11 01:00:00 -- -- -- -- -- -- -- -- --
2019-04-11 00:00:00 -- -- -- -- -- -- -- -- --
2019-04-10 23:00:00 -- -- -- -- -- -- -- -- --
2019-04-10 22:00:00 -- -- -- -- -- -- -- -- --
2019-04-10 21:00:00 -- -- -- -- -- -- -- -- --
2019-04-10 20:00:00 -- -- -- -- -- -- -- -- --
2019-04-10 19:00:00 -- -- -- -- -- -- -- -- --
2019-04-10 18:00:00 -- -- -- -- -- -- -- -- --
2019-04-10 17:00:00 -- -- -- -- -- -- -- -- --
2019-04-10 16:00:00 14.6 15 Sudeste 32 Sudeste 0 1007.5 -0.2 66
2019-04-10 15:00:00 17.7 13 Noroeste 24 Noroeste 0 1007.4 -0.5 46
2019-04-10 14:00:00 17.5 8 Noroeste 30 Noroeste 0 1007.5 -0.5 56
2019-04-10 13:00:00 17.2 13 Noroeste 32 Oeste 0 1007.7 0.2 55
2019-04-10 12:00:00 17.1 12 Noroeste 28 Noroeste 0 1007.9 0.7 63
2019-04-10 11:00:00 13.9 12 Noroeste 26 Noroeste 0 1008 2.2 73
2019-04-10 10:00:00 10.8 10 Noroeste 33 Noroeste 2.2 1007.5 2.1 86
2019-04-10 09:00:00 11.1 15 Noroeste 38 Noroeste 0.8 1007.2 2.4 82
2019-04-10 08:00:00 12.5 20 Noroeste 42 Noroeste 0 1005.8 0.5 75
2019-04-10 07:00:00 13.9 13 Noroeste 21 Noroeste 0 1005.4 -0.4 71
2019-04-10 06:00:00 13 13 Oeste 28 Oeste 0 1004.8 -1.5 77
2019-04-10 05:00:00 12.9 13 Oeste 28 Oeste 0 1005.3 -1.6 75
2019-04-10 04:00:00 13.1 12 Oeste 25 Oeste 0 1005.8 -1.3 72
2019-04-10 03:00:00 13.6 12 Oeste 32 Oeste 0 1006.3 -1.1 70
2019-04-10 02:00:00 14 19 Oeste 35 Noroeste 0 1006.9 -1.3 66
2019-04-10 01:00:00 14 17 Oeste 45 Oeste 0 1007.1 -1.4 63
2019-04-10 00:00:00 14.3 18 Oeste 41 Oeste 0 1007.4 -0.6 65
2019-04-09 23:00:00 14.3 22 Oeste 33 Oeste 0 1008.2 0.9 75
2019-04-09 22:00:00 14.2 16 Oeste 24 Oeste 0 1008.5 1.2 71
2019-04-09 21:00:00 14.8 19 Oeste 33 Oeste 0 1008 0.8 64
2019-04-09 20:00:00 16.7 20 Oeste 36 Noroeste 0 1007.3 0.1 49
2019-04-09 19:00:00 18 19 Oeste 41 Oeste 0 1007.3 -0.1 41
2019-04-09 18:00:00 18.6 19 Oeste 45 Oeste 0 1007.2 -0.2 48
2019-04-09 17:00:00 18.4 32 Oeste 46 Oeste 0 1007.2 0 49
2019-04-09 16:00:00 20.3 13 Noroeste 35 Noroeste 0 1007.4 0.2 41
2019-04-09 15:00:00 19.8 14 Noroeste 38 Noroeste 0 1007.4 0.4 42
2019-04-09 14:00:00 21 17 Noroeste 36 Noroeste 0 1007.2 0.3 37
2019-04-09 13:00:00 20.3 15 Noroeste 32 Oeste 0 1007.2 0.5 43
2019-04-09 12:00:00 19.5 12 Noroeste 34 Oeste 0 1007 -0.1 53
2019-04-09 11:00:00 18.1 16 Oeste 41 Oeste 0 1006.9 0 64
2019-04-09 10:00:00 16.7 23 Oeste 44 Oeste 0 1006.7 -0.4 66
2019-04-09 09:00:00 14.8 17 Sudoeste 29 Oeste 0 1007.1 0.2 85
2019-04-09 08:00:00 13.8 23 Oeste 31 Oeste 0 1006.9 -0.5 91
2019-04-09 07:00:00 13.5 13 Oeste 24 Sudoeste 0 1007.1 -1.2 94
2019-04-09 06:00:00 13.3 6 Oeste 12 Oeste 0 1006.9 -1.8 94
2019-04-09 05:00:00 13.4 2 Sudoeste 9 Sudoeste 0 1007.4 -1.7 91
2019-04-09 04:00:00 13.8 6 Sudoeste 11 Sudoeste 0 1008.3 -1 91
2019-04-09 03:00:00 14 4 Oeste 9 Oeste 0 1008.7 -0.7 89
2019-04-09 02:00:00 14.4 11 Oeste 19 Oeste 0 1009.1 -0.7 88
2019-04-09 01:00:00 14.7 12 Oeste 21 Oeste 0 1009.3 -0.5 85
2019-04-09 00:00:00 14.4 5 Sudoeste 15 Oeste 0 1009.4 0 88
2019-04-08 23:00:00 14.7 7 Oeste 22 Oeste 0 1009.8 0.7 86
2019-04-08 22:00:00 15.2 14 Oeste 27 Oeste 0 1009.8 1.1 82
2019-04-08 21:00:00 15.6 17 Oeste 39 Oeste 0 1009.4 0.7 74
2019-04-08 20:00:00 16.9 21 Oeste 35 Oeste 0 1009.1 0.3 63
2019-04-08 19:00:00 18.4 22 Oeste 42 Oeste 0 1008.7 -0.6 55
2019-04-08 18:00:00 19.2 23 Oeste 41 Oeste 0 1008.7 -1.1 55
2019-04-08 17:00:00 19.1 28 Oeste 44 Oeste 0 1008.8 -1.2 56
2019-04-08 16:00:00 19.3 23 Oeste 43 Oeste 0 1009.3 -1.1 52
2019-04-08 15:00:00 19.3 24 Sudoeste -- -- 0 1009.8 -0.9 60
2019-04-08 14:00:00 18.5 21 Oeste 42 Oeste 0 1010 -0.5 52
2019-04-08 13:00:00 17.8 22 Sudoeste 36 Sudoeste 0 1010.4 -0.4 54
2019-04-08 12:00:00 16.9 17 Sudoeste 35 Sudoeste 0 1010.7 -0.4 57
2019-04-08 11:00:00 17.1 26 Sudoeste 33 Sudoeste 0 1010.5 -0.4 77
2019-04-08 10:00:00 16.1 17 Sudoeste 23 Sudoeste 0 1010.8 0 82
2019-04-08 09:00:00 13.5 5 Sudoeste 13 Oeste 0 1011.1 0 91
2019-04-08 08:00:00 9.7 6 Oeste 8 Oeste 0 1010.9 -0.5 91
2019-04-08 07:00:00 9.2 6 Oeste 10 Oeste 0 1010.8 -0.9 90
2019-04-08 06:00:00 10.2 8 Oeste 10 Oeste 0 1011.1 -0.8 85
2019-04-08 05:00:00 10.4 8 Oeste 10 Oeste 0 1011.4 -1 82
2019-04-08 04:00:00 10.2 6 Oeste 11 Oeste 0 1011.7 -0.8 80
2019-04-08 03:00:00 8.9 7 Norte 13 Oeste 0 1011.9 -0.5 83
2019-04-08 02:00:00 9.1 5 Sudoeste 11 Sudoeste 0 1012.4 0.4 82
2019-04-08 01:00:00 9.1 4 Norte 8 Norte 0 1012.5 1.1 75
2019-04-08 00:00:00 10.7 6 Norte 10 Norte 0 1012.4 1.9 66
2019-04-07 23:00:00 10.9 5 Nordeste 14 Norte 0 1012 2.3 68
2019-04-07 22:00:00 12.3 6 Norte 18 Noroeste 0 1011.4 2.6 57
2019-04-07 21:00:00 12.9 10 Noroeste 22 Norte 0 1010.5 2.9 58
2019-04-07 20:00:00 14.4 15 Norte 28 Norte 0 1009.7 3.1 51
2019-04-07 19:00:00 15.9 16 Norte 30 Norte 0 1008.8 3 43
2019-04-07 18:00:00 16 18 Norte 39 Noroeste 0 1007.6 2.2 45
2019-04-07 17:00:00 17 17 Noroeste 43 Noroeste 0 1006.6 1.3 43
2019-04-07 16:00:00 18.1 18 Noroeste 43 Norte 0 1005.8 1.1 41
2019-04-07 15:00:00 17.6 14 Noroeste 38 Noroeste 0 1005.4 1.2 44
2019-04-07 14:00:00 15.8 15 Noroeste 33 Noroeste 0 1005.3 1.5 44
2019-04-07 13:00:00 16.5 13 Noroeste 32 Oeste 0 1004.7 1.6 51
2019-04-07 12:00:00 15.4 15 Noroeste 29 Oeste 0 1004.2 1.5 53
2019-04-07 11:00:00 14.9 15 Noroeste 30 Noroeste 0 1003.8 2.1 56
2019-04-07 10:00:00 11.6 10 Oeste 39 Norte 0.2 1003.1 1.9 74
2019-04-07 09:00:00 11.6 22 Noroeste 37 Noroeste 0 1002.7 1.8 72
2019-04-07 08:00:00 11.5 12 Oeste 22 Oeste 0 1001.7 0.9 78
2019-04-07 07:00:00 10.9 13 Oeste 18 Oeste 0 1001.2 0.2 76
2019-04-07 06:00:00 11.5 11 Oeste 19 Oeste 0 1000.9 -0.7 72
2019-04-07 05:00:00 12.1 10 Noroeste 23 Oeste 0 1000.8 -1.5 70
2019-04-07 04:00:00 12 9 Oeste 19 Noroeste 0 1001 -2 72
2019-04-07 03:00:00 11.9 8 Noroeste 18 Noroeste 0 1001.6 -1.7 73
2019-04-07 02:00:00 11.5 8 Oeste 15 Noroeste 0 1002.3 -1.4 75
2019-04-07 01:00:00 12 9 Oeste 14 Oeste 0 1003 -0.4 70
2019-04-07 00:00:00 12 7 Sudoeste 19 Oeste 0 1003.3 -0.2 73
2019-04-06 23:00:00 12.4 7 Sudoeste 13 Oeste 0 1003.7 0.5 73
2019-04-06 22:00:00 12.9 7 Oeste 17 Oeste 0 1003.4 0.4 68
2019-04-06 21:00:00 13.8 9 Oeste 32 Sudoeste 0 1003.5 0.8 61
2019-04-06 20:00:00 14.3 16 Oeste 42 Oeste 0 1003.2 0.7 57
2019-04-06 19:00:00 14.7 22 Oeste 44 Sudoeste 0 1003 0.7 54
2019-04-06 18:00:00 15 23 Sudoeste 51 Oeste 0 1002.7 0.4 51
2019-04-06 17:00:00 16 26 Oeste 53 Oeste 0 1002.5 0.3 45
2019-04-06 16:00:00 16.5 24 Oeste 54 Oeste 0 1002.3 0.1 44
2019-04-06 15:00:00 15.9 27 Oeste 50 Oeste 0 1002.3 0.4 46
2019-04-06 14:00:00 16.4 24 Oeste 48 Oeste 0 1002.2 0.6 49
2019-04-06 13:00:00 15.9 24 Oeste 49 Oeste 0 1002.2 1.3 49
2019-04-06 12:00:00 15.3 24 Oeste 50 Oeste 0.2 1001.9 1.1 53
2019-04-06 11:00:00 15 23 Oeste 37 Oeste 0 1001.6 1.9 56
2019-04-06 10:00:00 12.9 16 Oeste 31 Oeste 0 1000.9 1.9 62
2019-04-06 09:00:00 12.1 15 Oeste 43 Oeste 0 1000.8 1.6 64
2019-04-06 08:00:00 11.4 22 Oeste 42 Oeste 0 999.7 0.8 68
2019-04-06 07:00:00 10.4 14 Oeste 28 Oeste 0 999 0.7 79
2019-04-06 06:00:00 9.9 13 Oeste 23 Oeste 0 999.2 0.6 88
2019-04-06 05:00:00 10.5 12 Oeste 24 Oeste 0 998.9 -0.5 89
2019-04-06 04:00:00 11.5 13 Oeste 50 Sudoeste 2.6 998.3 -0.8 91
2019-04-06 03:00:00 13.4 23 Sudoeste 37 Sudoeste 0 998.6 -0.5 86
2019-04-06 02:00:00 12.8 13 Oeste 24 Sudoeste 0 999.4 0.2 86
2019-04-06 01:00:00 12.9 12 Sudoeste 24 Oeste 0 999.1 -0.6 87
2019-04-06 00:00:00 14.1 24 Sudoeste 48 Sudoeste 0 999.1 -0.1 82
2019-04-05 23:00:00 13.9 27 Sudoeste 34 Sudoeste 0 999.2 -0.1 84
2019-04-05 22:00:00 13.6 21 Sudoeste 45 Sudoeste 1.2 999.7 0.2 89
2019-04-05 21:00:00 15 31 Sudoeste 42 Sudoeste 0 999.2 -0.5 75
2019-04-05 20:00:00 15.1 31 Sudoeste 47 Sudoeste 0 999.3 -0.5 78
2019-04-05 19:00:00 15.9 34 Sudoeste 51 Sudoeste 0 999.5 -1 72
2019-04-05 18:00:00 15.7 36 Sudoeste 48 Sudoeste 0 999.7 -1.5 79
2019-04-05 17:00:00 15.6 36 Sur 44 Sudoeste 0 999.8 -1.8 71
2019-04-05 16:00:00 16.2 33 Sudoeste 41 Sudoeste 0 1000.5 -1.6 66
2019-04-05 15:00:00 17.6 31 Sudoeste 39 Sur 0 1001.2 -1.2 60
2019-04-05 14:00:00 17.4 28 Sudoeste 36 Sudoeste 0 1001.6 -0.8 61
2019-04-05 13:00:00 17.3 24 Sudoeste 33 Sudoeste 0 1002.1 0 59
2019-04-05 12:00:00 16.8 22 Sudoeste 30 Sudoeste 0 1002.4 0.2 57
2019-04-05 11:00:00 15.8 22 Sudoeste 31 Sudoeste 0 1002.4 0.3 56
2019-04-05 10:00:00 14.6 23 Sudoeste 33 Sudoeste 0 1002.1 0.3 56
2019-04-05 09:00:00 11.9 7 Oeste 14 Oeste 0 1002.2 0.7 62
2019-04-05 08:00:00 9.1 9 Oeste 12 Oeste 0 1002.1 0.4 67
2019-04-05 07:00:00 8 8 Noroeste 13 Noroeste 0 1001.8 -0.3 77
2019-04-05 06:00:00 8.8 6 Noroeste 11 Oeste 0 1001.5 -0.9 75
2019-04-05 05:00:00 9.2 6 Noroeste 14 Oeste 0 1001.7 -0.9 71
2019-04-05 04:00:00 10.1 10 Oeste 15 Sudoeste 0 1002.1 -0.7 67
2019-04-05 03:00:00 10.1 10 Oeste 15 Sudoeste 0 1002.4 -0.4 69
2019-04-05 02:00:00 9.9 6 Sudoeste 23 Sur 0 1002.6 -0.5 73
2019-04-05 01:00:00 12.6 14 Sur 21 Sur 0 1002.8 -0.3 68
2019-04-05 00:00:00 12.2 6 Sudeste 16 Sudeste 0 1002.8 0.3 68
2019-04-04 23:00:00 12.1 8 Sudeste 19 Sudeste 0 1003.1 0.7 64
2019-04-04 22:00:00 12.3 12 Sudeste 24 Sudeste 0 1003.1 1 61
2019-04-04 21:00:00 12.4 12 Sudeste 23 Este 0 1002.5 0.6 61
2019-04-04 20:00:00 12.9 14 Sudeste 27 Sudeste 0 1002.4 0.6 59
2019-04-04 19:00:00 14 14 Sudeste 28 Sudeste 0 1002.1 0.6 56
2019-04-04 18:00:00 14.6 13 Sudeste 32 Sudeste 0 1001.9 0.1 56
2019-04-04 17:00:00 15 17 Sudeste 32 Sudeste 0 1001.8 0 56
2019-04-04 16:00:00 15.4 14 Sudeste 29 Sudeste 0 1001.5 -0.6 55
2019-04-04 15:00:00 16.3 9 Sudeste 19 Sudeste 0 1001.8 -0.2 52
2019-04-04 14:00:00 17.3 10 Sur 19 Sudoeste 0 1001.8 0.3 46
2019-04-04 13:00:00 16.2 5 Norte 23 Norte 0 1002.1 1.4 49
2019-04-04 12:00:00 14 14 Noroeste 23 Norte 0 1002 1.8 54
2019-04-04 11:00:00 13 10 Norte 18 Norte 0 1001.5 1.9 63
2019-04-04 10:00:00 12.3 4 Norte 12 Norte 0 1000.7 1.5 73
2019-04-04 09:00:00 10.9 4 Noroeste 9 Norte 0 1000.2 1.4 77
2019-04-04 08:00:00 10.5 5 Norte 9 Norte 0 999.6 0.7 82
2019-04-04 07:00:00 10.5 7 Norte 16 Nordeste 0 999.2 0.3 84
2019-04-04 06:00:00 10.5 8 Nordeste 18 Nordeste 0 998.8 -0.7 83
2019-04-04 05:00:00 10.6 8 Nordeste 28 Nordeste 0 998.9 -1 87
2019-04-04 04:00:00 10.7 11 Nordeste 27 Norte 1.4 998.9 -1.1 90
2019-04-04 03:00:00 11.4 19 Nordeste 39 Nordeste 0 999.5 -0.4 82
2019-04-04 02:00:00 12.1 21 Nordeste 40 Norte 0 999.9 0.4 79
2019-04-04 01:00:00 13.4 16 Norte 28 Norte 0 1000 0.7 78
2019-04-04 00:00:00 14.4 6 Oeste 12 Norte 0 999.9 1.2 88
2019-04-03 23:00:00 14.3 9 Sudoeste 15 Sur 0 999.5 0.6 90
2019-04-03 22:00:00 14.2 5 Noroeste 19 Sudoeste 0 999.3 -0.3 89
2019-04-03 21:00:00 14.8 13 Sudoeste 27 Sudoeste 0 998.7 -1.4 87
2019-04-03 20:00:00 15.4 23 Sudoeste 32 Sudoeste 0 998.9 -1.9 86
2019-04-03 19:00:00 16.4 24 Sudoeste 34 Sudoeste 0 999.6 -2.1 82
2019-04-03 18:00:00 17.3 26 Sudoeste 42 Sudoeste 0 1000.1 -2.6 77
2019-04-03 17:00:00 17.7 32 Sudoeste 42 Sudoeste 0 1000.8 -3 76
2019-04-03 16:00:00 18.1 29 Sudoeste 42 Sudoeste 0 1001.7 -3 75
2019-04-03 15:00:00 18 32 Sudoeste 42 Sudoeste 0 1002.7 -3.1 75
2019-04-03 14:00:00 18.7 29 Sudoeste 37 Sudoeste 0 1003.8 -2.5 74
2019-04-03 13:00:00 18.1 29 Sudoeste 38 Sudoeste 0 1004.7 -1.9 73
2019-04-03 12:00:00 17.1 27 Sudoeste 36 Sudoeste 0 1005.8 -1.1 77
2019-04-03 11:00:00 16.5 26 Sudoeste 31 Sudoeste 0 1006.3 -0.8 78
2019-04-03 10:00:00 15.5 18 Sudoeste 30 Sudoeste 0 1006.6 -0.8 83
2019-04-03 09:00:00 15 14 Sudoeste 20 Sudoeste 0 1006.9 -0.8 86
2019-04-03 08:00:00 14 10 Sudoeste 16 Oeste 0 1007.1 -1.1 89
2019-04-03 07:00:00 13.8 9 Oeste 15 Oeste 0 1007.4 -1.6 88
2019-04-03 06:00:00 13.7 8 Oeste 14 Oeste 0 1007.7 -2.3 89
2019-04-03 05:00:00 13.9 5 Oeste 9 Oeste 0 1008.2 -2.6 88
2019-04-03 04:00:00 14 4 Oeste 10 Oeste 0 1009 -2.1 89
2019-04-03 03:00:00 13.6 5 Noroeste 8 Oeste 0 1010 -1.4 90
2019-04-03 02:00:00 13.2 4 Noroeste 8 Noroeste 0 1010.8 -0.9 90
2019-04-03 01:00:00 13.2 4 Noroeste 12 Oeste 0 1011.1 -0.5 88
2019-04-03 00:00:00 13.9 8 Sudoeste 15 Sudoeste 0 1011.4 0.5 87
2019-04-02 23:00:00 13.7 7 Oeste 15 Oeste 0 1011.7 0.8 86
2019-04-02 22:00:00 13.9 9 Oeste 15 Oeste 0 1011.6 0.7 84
2019-04-02 21:00:00 14.5 8 Oeste 20 Oeste 0 1010.9 -0.5 80
2019-04-02 20:00:00 15.7 10 Oeste 32 Sudoeste 0 1010.9 -0.6 75
2019-04-02 19:00:00 16.2 25 Sudoeste 35 Sudoeste 0 1010.9 -0.9 79
2019-04-02 18:00:00 16.6 26 Sudoeste 38 Sudoeste 0 1011.4 -0.9 78
2019-04-02 17:00:00 17.6 28 Sudoeste 37 Sudoeste 0 1011.5 -1.4 72
2019-04-02 16:00:00 17.6 28 Sudoeste 40 Sudoeste 0 1011.8 -1.7 72
2019-04-02 15:00:00 17.9 31 Sudoeste 40 Sudoeste 0 1012.3 -1.7 69
2019-04-02 14:00:00 17.5 31 Sudoeste 39 Sudoeste 0 1012.9 -0.9 72
2019-04-02 13:00:00 18.1 21 Sudoeste -- -- 0 1013.5 -0.2 65
2019-04-02 12:00:00 16.8 30 Sudoeste 35 Sudoeste 0 1014 0.2 73
2019-04-02 11:00:00 17 23 Sudoeste 27 Sudoeste 0 1013.8 0.3 73
2019-04-02 10:00:00 15.7 15 Sudoeste 21 Sudoeste 0 1013.7 0.5 74
2019-04-02 09:00:00 13 8 Oeste 13 Oeste 0 1013.8 0.8 89
2019-04-02 08:00:00 10.9 3 Noroeste 7 Oeste 0 1013.5 0.4 88
2019-04-02 07:00:00 10.9 4 Oeste 7 Norte 0 1013.2 -0.3 87
2019-04-02 06:00:00 11.2 6 Norte 8 Norte 0 1013 -0.9 81
2019-04-02 05:00:00 11.2 2 Norte 4 Noroeste 0 1013.1 -0.7 82
2019-04-02 04:00:00 11.6 0 Calma 8 Noroeste 0 1013.5 -0.5 78
2019-04-02 03:00:00 12.5 4 Oeste 8 Noroeste 0 1013.9 -0.2 77
2019-04-02 02:00:00 13.1 7 Norte 10 Norte 0 1013.8 -0.2 75
2019-04-02 01:00:00 13.6 6 Noroeste 9 Oeste 0 1014 0.2 79
2019-04-02 00:00:00 13.9 5 Oeste 10 Noroeste 0 1014.1 1 80
2019-04-01 23:00:00 14.1 2 Noroeste 6 Oeste 0 1014 1.4 81
2019-04-01 22:00:00 14.4 3 Oeste 5 Oeste 0 1013.8 1.5 82
2019-04-01 21:00:00 14.5 0 Calma 4 Norte 0 1013.1 0.8 81
2019-04-01 20:00:00 14.7 2 Nordeste 8 Sudeste 0 1012.6 0.3 80
2019-04-01 19:00:00 15.7 3 Este 11 Sudeste 0 1012.3 0.1 75
2019-04-01 18:00:00 16.4 6 Sudeste 12 Sudeste 0 1012.3 -0.1 73
2019-04-01 17:00:00 16.3 7 Sudeste 16 Este 0 1012.3 -0.2 74
2019-04-01 16:00:00 17 8 Sudeste 16 Sudeste 0 1012.2 -0.5 70
2019-04-01 15:00:00 16.7 8 Este 18 Nordeste 0 1012.4 0 68
2019-04-01 14:00:00 17.8 10 Nordeste 21 Nordeste 0 1012.5 0.5 65
2019-04-01 13:00:00 16.7 11 Nordeste 23 Nordeste 0 1012.7 1.2 67
2019-04-01 12:00:00 15.8 13 Nordeste 27 Nordeste 0 1012.4 1.3 71
2019-04-01 11:00:00 15.1 16 Nordeste 25 Nordeste 0 1012 1.4 72
2019-04-01 10:00:00 14.4 12 Nordeste 23 Nordeste 0 1011.5 1.2 77
2019-04-01 09:00:00 14.3 13 Nordeste 24 Este 0 1011.1 0.9 77
2019-04-01 08:00:00 14.2 13 Este 22 Este 0 1010.6 0.2 78
2019-04-01 07:00:00 14.2 14 Este 23 Este 0 1010.3 -0.3 80
2019-04-01 06:00:00 14.2 14 Este 25 Este 0 1010.2 -0.4 80
2019-04-01 05:00:00 14.2 14 Este 26 Este 0 1010.4 -0.4 81
2019-04-01 04:00:00 14.3 17 Este 31 Este 0 1010.6 0 83
2019-04-01 03:00:00 14.3 21 Este 31 Este 0 1010.6 -0.3 82
2019-04-01 02:00:00 14.3 18 Este 32 Nordeste 0 1010.8 -0.5 84
2019-04-01 01:00:00 14.3 17 Nordeste 33 Este 0 1010.6 -0.5 85
2019-04-01 00:00:00 14.4 21 Este 31 Este 0 1010.9 0.7 85
2019-03-31 23:00:00 14.4 14 Este 28 Este 0 1011.3 0.7 87
2019-03-31 22:00:00 14.4 15 Este 35 Nordeste 0 1011.1 0.4 88
2019-03-31 21:00:00 14.2 18 Nordeste 31 Nordeste 0 1010.2 -0.6 90
2019-03-31 20:00:00 14.5 14 Nordeste 22 Este 0 1010.6 -0.3 89
2019-03-31 19:00:00 15.1 9 Este 19 Este 0 1010.7 -0.7 86
2019-03-31 18:00:00 15.1 11 Este 20 Este 0 1010.8 -1.3 87
2019-03-31 17:00:00 15.3 11 Este 22 Sudeste 0 1010.9 -1.7 85
2019-03-31 16:00:00 15.7 9 Este 23 Sudeste 0 1011.4 -1.7 84
2019-03-31 15:00:00 15.7 12 Este 24 Sudeste 0 1012.1 -1.3 83
2019-03-31 14:00:00 15.8 14 Este 27 Este 0 1012.6 -0.7 82
2019-03-31 13:00:00 16.8 12 Este 24 Este 0 1013.1 0 77
2019-03-31 12:00:00 16.4 12 Este 25 Este 0 1013.4 0 78
2019-03-31 11:00:00 15.6 14 Este 25 Este 0 1013.3 -0.2 80
2019-03-31 10:00:00 15.3 18 Este 28 Este 0 1013.1 -0.6 82
2019-03-31 09:00:00 14.7 16 Este 28 Este 0 1013.4 -0.5 86
2019-03-31 08:00:00 14.2 18 Este 28 Este 0 1013.5 -1 88
2019-03-31 07:00:00 14.1 16 Este 27 Nordeste 0 1013.7 -1.3 89
2019-03-31 06:00:00 14 14 Nordeste 24 Nordeste 0 1013.9 -1.9 92
2019-03-31 05:00:00 14 14 Nordeste 24 Nordeste 0 1014.5 -1.9 93
2019-03-31 03:00:00 14.2 13 Este 22 Este 0 1015.8 -2 90
2019-03-31 01:00:00 14.3 12 Este 20 Este 0 1016.4 -1.4 89
2019-03-31 00:00:00 14.3 12 Este 19 Este 0 1017.1 -0.8 87
2019-03-30 23:00:00 14.7 11 Este 19 Este 0 1017.8 0.3 85
2019-03-30 22:00:00 14.6 14 Este 23 Este 0 1017.8 0.4 86
2019-03-30 21:00:00 14.6 14 Este 24 Este 0 1017.9 0.5 83
2019-03-30 20:00:00 14.6 15 Este 25 Este 0 1017.5 -0.3 85
2019-03-30 19:00:00 14.7 15 Este 27 Este 0 1017.4 -0.9 84
2019-03-30 18:00:00 15.2 18 Este 28 Este 0 1017.4 -1.5 82
2019-03-30 17:00:00 15.3 19 Este 27 Este 0 1017.8 -1.8 79
2019-03-30 16:00:00 15.6 15 Este 27 Este 0 1018.3 -2 76
2019-03-30 15:00:00 16.5 13 Este 23 Este 0 1018.9 -1.8 72
2019-03-30 14:00:00 15.9 14 Este 24 Este 0 1019.6 -1.6 73
2019-03-30 13:00:00 16.2 14 Este 23 Este 0 1020.3 -1.2 70
2019-03-30 12:00:00 16.2 15 Este 24 Este 0 1020.7 -0.7 66
2019-03-30 11:00:00 16.4 11 Este 23 Este 0 1021.2 0 62
2019-03-30 10:00:00 15.9 12 Este 22 Este 0 1021.5 0.4 62
2019-03-30 09:00:00 14.6 12 Este 19 Este 0 1021.4 0.3 62
2019-03-30 08:00:00 11.5 7 Nordeste 14 Norte 0 1021.2 -0.1 76
2019-03-30 07:00:00 9.9 12 Norte 15 Norte 0 1021.1 -0.6 78
2019-03-30 06:00:00 9.9 9 Norte 13 Norte 0 1021.1 -0.7 78
2019-03-30 05:00:00 10.6 10 Norte 13 Norte 0 1021.3 -1.2 75
2019-03-30 04:00:00 13.3 5 Sur 14 Sudeste 0 1021.7 -1 67
2019-03-30 03:00:00 13.2 8 Sudeste 18 Sudeste 0 1021.8 -1.2 65
2019-03-30 02:00:00 13.6 11 Sur 23 Sudeste 0 1022.5 -0.9 66
2019-03-30 01:00:00 13.5 9 Sudeste 21 Sudeste 0 1022.7 -0.9 65
2019-03-30 00:00:00 13.2 12 Sudeste 21 Sudeste 0 1023 -0.2 64
2019-03-29 23:00:00 13 10 Sudeste 22 Sudeste 0 1023.4 0.2 67
2019-03-29 22:00:00 13.2 11 Sudeste 21 Sudeste 0 1023.6 0.7 68
2019-03-29 21:00:00 13.5 12 Este 21 Este 0 1023.2 0.5 71
2019-03-29 20:00:00 13.6 12 Este 22 Este 0 1023.2 0.3 71
2019-03-29 19:00:00 13.7 10 Este 20 Este 0 1022.9 -0.3 68
2019-03-29 18:00:00 14.8 11 Este 21 Este 0 1022.7 -1.3 63
2019-03-29 17:00:00 15.5 11 Este 23 Sudeste 0 1022.9 -1.8 58
2019-03-29 16:00:00 16.3 13 Sudeste 21 Sudeste 0 1023.2 -1.9 55
2019-03-29 15:00:00 17.5 6 Sudeste 13 Este 0 1024 -1.2 51
2019-03-29 14:00:00 16.9 7 Sudeste 17 Este 0 1024.7 -0.9 52
2019-03-29 13:00:00 16.7 9 Este 20 Este 0 1025.1 -0.7 55
2019-03-29 12:00:00 16.5 11 Este 21 Este 0 1025.2 -0.3 54
2019-03-29 11:00:00 15.4 15 Este 26 Este 0 1025.6 0.2 60
2019-03-29 10:00:00 15.2 15 Este 24 Este 0 1025.8 0.6 65
2019-03-29 09:00:00 14.1 9 Nordeste 15 Nordeste 0 1025.5 0.7 74
2019-03-29 08:00:00 10.4 9 Norte 15 Norte 0 1025.4 0.8 79
2019-03-29 07:00:00 7.5 8 Norte 11 Norte 0 1025.2 0.6 82
2019-03-29 06:00:00 7 9 Norte 11 Norte 0 1024.8 0.1 73
2019-03-29 05:00:00 7.7 9 Norte 10 Norte 0 1024.6 -0.4 69
2019-03-29 04:00:00 7.6 8 Norte 11 Norte 0 1024.6 -0.5 71
2019-03-29 03:00:00 8.6 9 Norte 12 Norte 0 1024.7 -0.6 71
2019-03-29 02:00:00 9.1 9 Norte 13 Norte 0 1025 -0.4 73
2019-03-29 01:00:00 9.3 8 Norte 10 Norte 0 1025.1 -0.4 76
2019-03-29 00:00:00 9 8 Norte 10 Norte 0 1025.3 -0.2 71
2019-03-28 23:00:00 9.5 8 Norte 12 Norte 0 1025.4 0.5 69
2019-03-28 22:00:00 10.2 8 Norte 12 Norte 0 1025.5 0.9 65
2019-03-28 21:00:00 11.4 8 Norte 11 Norte 0 1025.5 1.2 61
2019-03-28 20:00:00 12.5 8 Norte 23 Nordeste 0 1024.9 1 61
2019-03-28 19:00:00 13.9 13 Nordeste 22 Nordeste 0 1024.6 0.7 63
2019-03-28 18:00:00 14.9 14 Este 25 Este 0 1024.3 0.2 61
2019-03-28 17:00:00 15.7 12 Este 25 Este 0 1023.9 -0.6 66
2019-03-28 16:00:00 16.4 12 Este 23 Este 0 1023.9 -0.6 59
2019-03-28 15:00:00 17.1 13 Nordeste 23 Nordeste 0 1024.1 -0.6 60
2019-03-28 14:00:00 17 14 Este 30 Nordeste 0 1024.5 -0.3 55
2019-03-28 13:00:00 16.8 21 Nordeste 35 Nordeste 0 1024.5 -0.1 60
2019-03-28 12:00:00 16.6 23 Nordeste 36 Nordeste 0 1024.7 0.4 57
2019-03-28 11:00:00 16.5 22 Nordeste 33 Nordeste 0 1024.8 0.8 52
2019-03-28 10:00:00 15.9 21 Nordeste 31 Nordeste 0 1024.6 0.9 52
2019-03-28 09:00:00 14.7 14 Nordeste 27 Nordeste 0 1024.3 0.9 55
2019-03-28 08:00:00 12.1 9 Norte 22 Norte 0 1024 0.9 62
2019-03-28 07:00:00 10.2 15 Norte 24 Norte 0 1023.7 0.8 72
2019-03-28 06:00:00 9.9 11 Norte 22 Norte 0 1023.4 0.3 71
2019-03-28 05:00:00 9.4 13 Norte 21 Norte 0 1023.1 0.1 73
2019-03-28 04:00:00 9.3 13 Norte 18 Nordeste 0 1022.9 -0.4 72
2019-03-28 03:00:00 10 12 Nordeste 21 Nordeste 0 1023.1 0.3 69
2019-03-28 02:00:00 10 12 Nordeste 18 Norte 0 1023 0.4 68
2019-03-28 01:00:00 10.2 12 Nordeste 22 Norte 0 1023.3 0.5 70
2019-03-28 00:00:00 9.7 14 Norte 19 Norte 0 1022.8 0.2 70
2019-03-27 23:00:00 9.7 11 Norte 17 Norte 0 1022.6 0.5 64
2019-03-27 22:00:00 9.7 12 Norte 19 Norte 0 1022.8 1.4 68
2019-03-27 21:00:00 10.6 12 Norte 22 Nordeste 0 1022.6 1.8 70
2019-03-27 20:00:00 11.7 13 Nordeste 28 Nordeste 0 1022.1 1.4 68
2019-03-27 19:00:00 13.1 14 Nordeste 25 Nordeste 0 1021.4 0.5 62
2019-03-27 18:00:00 14.9 15 Nordeste 26 Nordeste 0 1020.8 -0.2 54
2019-03-27 17:00:00 15.9 14 Nordeste 29 Nordeste 0 1020.7 -0.4 58
2019-03-27 16:00:00 16 21 Nordeste 35 Nordeste 0 1020.9 -0.4 54
2019-03-27 15:00:00 16.5 21 Nordeste 37 Nordeste 0 1021 -0.1 54
2019-03-27 14:00:00 16.4 22 Nordeste 40 Nordeste 0 1021.1 0.2 59
2019-03-27 13:00:00 16.3 21 Nordeste 36 Nordeste 0 1021.3 0.7 58
2019-03-27 12:00:00 16.7 18 Nordeste 34 Nordeste 0 1021.1 0.9 59
2019-03-27 11:00:00 16.7 19 Nordeste 34 Nordeste 0 1020.9 0.9 57
2019-03-27 10:00:00 15.8 21 Nordeste 32 Nordeste 0 1020.6 1 53
2019-03-27 09:00:00 14.6 16 Nordeste 31 Nordeste 0 1020.2 0.8 58
2019-03-27 08:00:00 12.5 15 Norte 29 Nordeste 0 1020 0.6 69
2019-03-27 07:00:00 10.4 13 Norte 22 Norte 0 1019.6 0.1 70
2019-03-27 06:00:00 10.3 12 Norte 20 Norte 0 1019.4 -0.6 65
2019-03-27 05:00:00 10.1 13 Norte 22 Norte 0 1019.4 -1.1 66
2019-03-27 04:00:00 9.3 13 Norte 19 Norte 0 1019.5 -0.8 68
2019-03-27 03:00:00 9 9 Norte 13 Norte 0 1020 -0.1 68
2019-03-27 02:00:00 8.7 9 Norte 18 Norte 0 1020.5 0.4 64
2019-03-27 01:00:00 8.9 11 Norte 17 Norte 0 1020.3 0.3 59
2019-03-27 00:00:00 8.2 10 Norte 14 Norte 0 1020.1 0.1 65
2019-03-26 23:00:00 8.2 9 Norte 13 Norte 0 1020.1 0.7 65
2019-03-26 22:00:00 8.4 8 Norte 13 Norte 0 1020 0.9 65
2019-03-26 21:00:00 9.4 8 Norte 11 Norte 0 1020 1.8 61
2019-03-26 20:00:00 10.5 8 Norte 28 Nordeste 0 1019.4 1.3 57
2019-03-26 19:00:00 12.2 22 Nordeste 43 Nordeste 0 1019.1 1.5 57
2019-03-26 18:00:00 12.9 28 Nordeste 45 Nordeste 0 1018.2 0.4 61
2019-03-26 17:00:00 13.3 29 Nordeste 47 Nordeste 0 1018.1 0.1 62
2019-03-26 16:00:00 14.7 27 Nordeste 51 Nordeste 0 1017.6 -0.6 46
2019-03-26 15:00:00 14.9 29 Nordeste 50 Nordeste 0 1017.8 -0.3 44
2019-03-26 14:00:00 14.9 31 Nordeste 55 Nordeste 0 1018 -0.4 46
2019-03-26 13:00:00 15.3 28 Nordeste 55 Nordeste 0 1018.2 0.3 43
2019-03-26 12:00:00 15.4 31 Nordeste 57 Nordeste 0 1018.1 0.5 36
2019-03-26 11:00:00 14.5 31 Nordeste 51 Nordeste 0 1018.4 0.9 40
2019-03-26 10:00:00 14.9 25 Nordeste 50 Nordeste 0 1017.9 0.9 35
2019-03-26 09:00:00 14.1 23 Nordeste 49 Nordeste 0 1017.6 1 37
2019-03-26 08:00:00 12.7 16 Norte 28 Nordeste 0 1017.5 0.9 39
2019-03-26 07:00:00 10.9 12 Norte 21 Nordeste 0 1017 0.9 67
2019-03-26 06:00:00 10.8 13 Norte 22 Nordeste 0 1016.6 0.7 76
2019-03-26 05:00:00 11.1 13 Norte 24 Nordeste 0 1016.6 0.1 86
2019-03-26 04:00:00 8.9 9 Norte 11 Norte 0 1016.1 -0.8 90
2019-03-26 03:00:00 10 8 Norte 10 Norte 0 1015.9 -0.8 90
2019-03-26 02:00:00 10.2 8 Norte 10 Norte 0 1016.5 0 89
2019-03-26 01:00:00 9.8 9 Norte 12 Norte 0 1016.9 0.9 88
2019-03-26 00:00:00 10.3 8 Norte 10 Norte 0 1016.7 1 85
2019-03-25 23:00:00 10.3 9 Norte 10 Norte 0 1016.5 0.9 84
2019-03-25 22:00:00 11.6 4 Noroeste 10 Sur 0 1016 0.4 81
2019-03-25 21:00:00 13.9 5 Sur 15 Sudeste 0 1015.7 0 74
2019-03-25 20:00:00 14.3 6 Sudeste 16 Este 0 1015.6 -0.3 74
2019-03-25 19:00:00 15.1 10 Sudeste 17 Este 0 1015.6 -0.6 71
2019-03-25 18:00:00 16.6 8 Este 18 Nordeste 0 1015.7 -1 63
2019-03-25 17:00:00 17.4 11 Nordeste 21 Nordeste 0 1015.9 -1.3 65
2019-03-25 16:00:00 18.9 11 Nordeste 23 Nordeste 0 1016.2 -1.7 58
2019-03-25 15:00:00 19.4 13 Nordeste 27 Nordeste 0 1016.7 -1.6 51
2019-03-25 14:00:00 19.2 18 Nordeste 27 Nordeste 0 1017.2 -1.4 48
2019-03-25 13:00:00 19.3 18 Nordeste 27 Nordeste 0 1017.9 -0.7 49
2019-03-25 12:00:00 20.5 13 Nordeste 22 Nordeste 0 1018.3 -0.1 41
2019-03-25 11:00:00 20.5 15 Nordeste 21 Nordeste 0 1018.6 0.4 36
2019-03-25 10:00:00 17.5 3 Sur 8 Nordeste 0 1018.6 0.4 73
2019-03-25 09:00:00 15.1 4 Sur 9 Norte 0 1018.4 0.4 76
2019-03-25 08:00:00 12 9 Norte 13 Norte 0 1018.2 0 80
2019-03-25 07:00:00 9 10 Norte 12 Norte 0 1018.2 0 91
2019-03-25 06:00:00 9.2 6 Norte 9 Norte 0 1018 -0.5 93
2019-03-25 05:00:00 9.3 8 Norte 11 Norte 0 1018.2 -0.7 93
2019-03-25 04:00:00 9.1 9 Norte 11 Norte 0 1018.2 -0.8 92
2019-03-25 03:00:00 8.9 9 Norte 10 Norte 0 1018.5 -0.9 90
2019-03-25 02:00:00 10.2 4 Norte 10 Norte 0 1018.9 -0.5 89
2019-03-25 01:00:00 10.1 7 Norte 9 Norte 0 1019 -0.8 86
2019-03-25 00:00:00 10.4 5 Noroeste 12 Norte 0 1019.4 -0.2 83
2019-03-24 23:00:00 10.7 8 Norte 11 Norte 0 1019.4 0.3 82
2019-03-24 22:00:00 12.6 4 Oeste 7 Oeste 0 1019.8 1 78
2019-03-24 21:00:00 13.1 4 Noroeste 10 Nordeste 0 1019.6 0.6 82
2019-03-24 20:00:00 14.5 9 Nordeste 14 Sudoeste 0 1019.1 0 76
2019-03-24 19:00:00 16.2 10 Sudoeste 23 Oeste 0 1018.8 -0.3 63
2019-03-24 18:00:00 18.8 15 Oeste 31 Sudoeste 0 1019 -0.4 43
2019-03-24 17:00:00 19.5 20 Sudoeste -- -- 0 1019.1 -0.9 41
2019-03-24 16:00:00 17.7 29 Sudoeste 39 Sudoeste 0 1019.1 -1.7 64
2019-03-24 15:00:00 18 28 Sudoeste 36 Sudoeste 0 1019.4 -1.9 60
2019-03-24 14:00:00 18 28 Sudoeste 35 Sudoeste 0 1020 -1.6 72
2019-03-24 13:00:00 17.8 27 Sudoeste 34 Sudoeste 0 1020.8 -0.8 73
2019-03-24 12:00:00 17.5 27 Sudoeste 35 Sudoeste 0 1021.3 -0.1 77
2019-03-24 11:00:00 16.9 26 Sudoeste 33 Sudoeste 0 1021.6 0.4 79
2019-03-24 10:00:00 16.2 20 Sudoeste 27 Sudoeste 0 1021.6 0.7 77
2019-03-24 09:00:00 16.2 5 Sur 10 Sudoeste 0 1021.4 0.3 72
2019-03-24 08:00:00 12.2 5 Noroeste 8 Oeste 0 1021.2 0 71
2019-03-24 07:00:00 10 6 Oeste 9 Norte 0 1020.9 -0.3 85
2019-03-24 06:00:00 9.6 8 Norte 10 Norte 0 1021.1 -0.6 87
2019-03-24 05:00:00 9.7 9 Norte 13 Norte 0 1021.2 -0.5 82
2019-03-24 04:00:00 10 10 Norte 15 Norte 0 1021.2 -0.5 81
2019-03-24 03:00:00 9.3 11 Norte 15 Nordeste 0 1021.7 0 85
2019-03-24 02:00:00 10.6 5 Nordeste 9 Noroeste 0 1021.7 -0.2 78
2019-03-24 01:00:00 11.9 6 Noroeste 17 Noroeste 0 1021.7 -0.1 69
2019-03-24 00:00:00 11.9 8 Noroeste 16 Oeste 0 1021.7 -0.3 68
2019-03-23 23:00:00 11.8 8 Noroeste 13 Oeste 0 1021.9 0.2 65
2019-03-23 22:00:00 11.7 7 Noroeste 12 Noroeste 0 1021.8 0.1 71
2019-03-23 21:00:00 13.4 5 Noroeste 10 Oeste 0 1022 0.3 66
2019-03-23 20:00:00 14 10 Oeste 14 Oeste 0 1021.7 0.1 64
2019-03-23 19:00:00 14.5 7 Sudoeste 11 Sudoeste 0 1021.7 0.1 70
2019-03-23 18:00:00 17.2 11 Sudoeste 15 Sudoeste 0 1021.7 -0.1 64
2019-03-23 17:00:00 17.9 6 Este 10 Nordeste 0 1021.6 -0.6 56
2019-03-23 16:00:00 18.5 5 Este 12 Nordeste 0 1021.6 -1.4 58
2019-03-23 15:00:00 17.9 8 Este 17 Este 0 1021.8 -1.5 65
2019-03-23 14:00:00 17.9 13 Este 18 Este 0 1022.2 -1.3 62
2019-03-23 13:00:00 17.9 14 Este 23 Este 0 1023 -0.6 58
2019-03-23 12:00:00 18.3 9 Este 17 Este 0 1023.3 -0.1 65
2019-03-23 11:00:00 17.6 6 Este 16 Nordeste 0 1023.5 0.6 66
2019-03-23 10:00:00 17.3 10 Nordeste 19 Nordeste 0 1023.6 1 62
2019-03-23 09:00:00 16.2 12 Nordeste 19 Nordeste 0 1023.4 1.2 59
2019-03-23 08:00:00 13.9 10 Norte 17 Nordeste 0 1022.9 0.7 64
2019-03-23 07:00:00 12.2 10 Norte 17 Nordeste 0 1022.6 0.7 72
2019-03-23 06:00:00 11.8 12 Norte 18 Norte 0 1022.2 -0.1 77
2019-03-23 05:00:00 12.5 11 Norte 18 Nordeste 0 1022.2 -0.4 78
2019-03-23 04:00:00 12.3 11 Norte 17 Norte 0 1021.9 -1.1 77
2019-03-23 03:00:00 12 12 Norte 18 Norte 0 1022.3 -0.9 78
2019-03-23 02:00:00 11.3 11 Norte 15 Norte 0 1022.6 -0.7 84
2019-03-23 01:00:00 11.7 10 Norte 15 Norte 0 1023 -0.1 87
2019-03-23 00:00:00 11.8 10 Norte 15 Norte 0 1023.2 0.1 89
2019-03-22 23:00:00 12.1 9 Norte 16 Norte 0 1023.3 0.8 89
2019-03-22 22:00:00 12.2 9 Norte 20 Nordeste 0 1023.1 1.1 88
2019-03-22 21:00:00 14 11 Nordeste 20 Nordeste 0 1023.1 1.7 85
2019-03-22 20:00:00 14.1 13 Nordeste 26 Nordeste 0 1022.5 0.9 84
2019-03-22 19:00:00 14.5 15 Nordeste 26 Nordeste 0 1022 0.2 81
2019-03-22 18:00:00 14.9 17 Nordeste 27 Nordeste 0 1021.4 -0.4 80
2019-03-22 17:00:00 15.4 18 Nordeste 31 Nordeste 0 1021.6 -0.6 77
2019-03-22 16:00:00 15.3 21 Nordeste 30 Nordeste 0 1021.8 -0.6 79
2019-03-22 15:00:00 16.1 19 Nordeste 33 Nordeste 0 1021.8 -0.7 74
2019-03-22 14:00:00 18.9 17 Nordeste 28 Nordeste 0 1022.2 -0.5 61
2019-03-22 13:00:00 18.6 18 Nordeste 31 Nordeste 0 1022.4 -0.1 60
2019-03-22 12:00:00 17.7 20 Nordeste 34 Nordeste 0 1022.5 0.3 64
2019-03-22 11:00:00 18.1 20 Nordeste 33 Nordeste 0 1022.7 0.7 59
2019-03-22 10:00:00 15.9 14 Nordeste 31 Nordeste 0 1022.5 1 68
2019-03-22 09:00:00 14.6 16 Nordeste 29 Nordeste 0 1022.2 0.9 74
2019-03-22 08:00:00 13.1 12 Norte 24 Nordeste 0 1022 1 80
2019-03-22 07:00:00 11.9 12 Norte 23 Norte 0 1021.5 0.5 83
2019-03-22 06:00:00 12.3 13 Norte 24 Nordeste 0 1021.3 0 81
2019-03-22 05:00:00 11.9 14 Nordeste 24 Nordeste 0 1021 -0.7 83
2019-03-22 04:00:00 11.7 14 Norte 26 Norte 0 1021 -0.9 81
2019-03-22 03:00:00 11.9 13 Norte 27 Nordeste 0 1021.3 -1 78
2019-03-22 02:00:00 12 15 Nordeste 26 Nordeste 0 1021.7 -0.8 75
2019-03-22 01:00:00 11.7 14 Norte 30 Nordeste 0 1021.9 -0.4 74
2019-03-22 00:00:00 12.3 15 Nordeste 37 Nordeste 0 1022.3 -0.1 75
2019-03-21 23:00:00 12.5 17 Nordeste 43 Nordeste 0 1022.5 0.3 75
2019-03-21 22:00:00 12.6 19 Nordeste 44 Nordeste 0 1022.3 0.4 74
2019-03-21 21:00:00 12.9 28 Nordeste 45 Nordeste 0 1022.4 0.9 73
2019-03-21 20:00:00 12.8 23 Nordeste 42 Nordeste 0 1022.2 0.9 71
2019-03-21 19:00:00 12.9 26 Nordeste 45 Nordeste 0 1021.9 0.6 69
2019-03-21 18:00:00 13.3 25 Nordeste 46 Nordeste 0 1021.5 -0.1 68
2019-03-21 17:00:00 14.2 27 Nordeste 47 Nordeste 0 1021.3 -0.8 66
2019-03-21 16:00:00 15.5 28 Nordeste 49 Nordeste 0 1021.3 -1.5 59
2019-03-21 15:00:00 15.1 31 Nordeste 47 Nordeste 0 1021.6 -1.4 59
2019-03-21 14:00:00 14.8 31 Nordeste 47 Nordeste 0 1022.1 -0.8 59
2019-03-21 13:00:00 15.6 29 Nordeste 46 Nordeste 0 1022.8 0.2 55
2019-03-21 12:00:00 15.4 29 Nordeste 46 Nordeste 0 1023 0.7 58
2019-03-21 11:00:00 15.4 30 Nordeste 50 Nordeste 0 1022.9 1.1 59
2019-03-21 10:00:00 14.7 30 Nordeste 52 Nordeste 0 1022.6 1.1 61
2019-03-21 09:00:00 14 31 Nordeste 52 Nordeste 0 1022.3 1 61
2019-03-21 08:00:00 13 30 Nordeste 50 Nordeste 0 1021.8 0.2 63
2019-03-21 07:00:00 12 18 Nordeste 37 Nordeste 0 1021.5 -0.1 69
2019-03-21 06:00:00 11.5 17 Norte 32 Norte 0 1021.3 -0.8 67
2019-03-21 05:00:00 11.4 15 Nordeste 28 Nordeste 0 1021.6 -1.1 68
2019-03-21 04:00:00 11.1 16 Norte 31 Nordeste 0 1021.6 -1.6 67
2019-03-21 03:00:00 12.4 26 Nordeste 48 Nordeste 0 1022.1 -1.6 65
2019-03-21 02:00:00 11.5 17 Norte 29 Nordeste 0 1022.7 -1.1 65
2019-03-21 01:00:00 11.9 18 Nordeste 33 Nordeste 0 1023.2 -0.7 67
2019-03-21 00:00:00 11.4 14 Norte 46 Nordeste 0 1023.7 -0.1 67
2019-03-20 23:00:00 12.4 28 Nordeste 56 Nordeste 0 1023.8 0.4 67
2019-03-20 22:00:00 12.5 30 Nordeste 57 Nordeste 0 1023.9 0.9 64
2019-03-20 21:00:00 12.5 35 Nordeste 54 Nordeste 0 1023.8 1.3 61
2019-03-20 20:00:00 12 23 Nordeste 46 Norte 0 1023.4 1.1 67
2019-03-20 19:00:00 12.2 24 Nordeste 46 Nordeste 0.2 1023 0.1 68
2019-03-20 18:00:00 12.5 24 Nordeste 46 Nordeste 0 1022.5 -0.1 67
2019-03-20 17:00:00 11.8 17 Norte 37 Nordeste 0.2 1022.3 -0.7 75
2019-03-20 16:00:00 9.6 22 Nordeste 63 Nordeste 0.8 1022.9 -0.4 86
2019-03-20 15:00:00 14.6 26 Nordeste 41 Nordeste 0 1022.6 -0.7 47
2019-03-20 14:00:00 12.6 21 Nordeste 49 Nordeste 0 1023 -0.1 61
2019-03-20 13:00:00 13.5 31 Nordeste 50 Nordeste 0 1023.3 0 56
2019-03-20 12:00:00 15.8 20 Nordeste 40 Nordeste 0 1023.3 0.1 52
2019-03-20 11:00:00 14.8 20 Nordeste 43 Nordeste 0 1023.1 0.1 50
2019-03-20 10:00:00 14.4 21 Nordeste 42 Nordeste 0 1023.3 0.9 49
2019-03-20 09:00:00 12.9 23 Nordeste 43 Nordeste 0 1023.2 1.3 52
2019-03-20 08:00:00 11 15 Norte 30 Norte 0 1023 1.1 62
2019-03-20 07:00:00 10.8 15 Norte 36 Nordeste 0 1022.4 0.8 67
2019-03-20 06:00:00 11.3 16 Nordeste 31 Nordeste 0 1021.9 0.1 68
2019-03-20 05:00:00 9.9 13 Norte 24 Norte 0 1021.9 -0.2 69
2019-03-20 04:00:00 10.9 14 Norte 36 Nordeste 0 1021.6 -0.2 67
2019-03-20 03:00:00 12.3 22 Nordeste 45 Nordeste 0 1021.8 -0.1 67
2019-03-20 02:00:00 12.5 27 Nordeste 50 Nordeste 0 1022.1 0.2 61
2019-03-20 01:00:00 12.5 30 Nordeste 50 Nordeste 0 1021.8 0.4 66
2019-03-20 00:00:00 11.5 21 Nordeste 53 Este 0.4 1021.9 0.6 74
2019-03-19 23:00:00 11.6 16 Nordeste 39 Nordeste 0 1021.9 1 62
2019-03-19 22:00:00 11.1 15 Norte 24 Norte 0 1021.4 0.8 72
2019-03-19 21:00:00 9.9 12 Norte 20 Norte 0 1021.3 1.2 71
2019-03-19 20:00:00 9.9 9 Norte 16 Norte 0 1020.9 1.1 69
2019-03-19 19:00:00 10.6 9 Norte 28 Nordeste 0 1020.6 0.7 63
2019-03-19 18:00:00 12.4 15 Nordeste 27 Nordeste 0 1020.1 0.1 57
2019-03-19 17:00:00 12.3 15 Nordeste 32 Nordeste 0 1019.8 -0.6 60
2019-03-19 16:00:00 12.9 13 Nordeste 21 Nordeste 0 1019.9 -0.9 64
2019-03-19 15:00:00 12.1 8 Nordeste 24 Nordeste 0 1020 -0.7 67
2019-03-19 14:00:00 11.8 14 Nordeste 25 Nordeste 0 1020.4 -0.4 69
2019-03-19 13:00:00 12.1 10 Norte 27 Norte 0 1020.8 1 71
2019-03-19 12:00:00 10.6 16 Norte 31 Noroeste 0 1020.7 1 76
2019-03-19 11:00:00 9.7 13 Norte 40 Norte 0 1020.8 1.3 81
2019-03-19 10:00:00 10.6 15 Norte 30 Noroeste 0 1019.8 0.5 69
2019-03-19 09:00:00 9.9 13 Norte 31 Norte 0 1019.7 0.5 75
2019-03-19 08:00:00 10.3 15 Norte 30 Noroeste 0 1019.5 0.1 74
2019-03-19 07:00:00 10.2 6 Noroeste 13 Noroeste 0 1019.3 -0.4 69
2019-03-19 06:00:00 9.7 6 Norte 11 Noroeste 0 1019.2 -1.2 71
2019-03-19 05:00:00 8.8 6 Noroeste 12 Noroeste 0 1019.4 -1.8 76
2019-03-19 04:00:00 9.4 8 Norte 14 Noroeste 0 1019.7 -1.7 73
2019-03-19 03:00:00 9.9 8 Noroeste 10 Noroeste 0 1020.4 -1.2 74
2019-03-19 02:00:00 10.1 6 Norte 10 Norte 0 1021.2 -0.6 75
2019-03-19 01:00:00 9.9 6 Norte 9 Norte 0 1021.4 -0.4 75
2019-03-19 00:00:00 9.4 6 Norte 10 Norte 0 1021.6 0.2 81